Terminal Aerodrome Forecast
Issued by NWS Sterling, VA

Current Version | Previous Version | Graphics & Text | Print | Product List | Glossary On
Versions: 1 2 3 4 5 6 7 8 9 10 11 12 13 14 15 16 17
935
FTUS41 KLWX 122113 AAA
TAFMRB
TAF AMD
KMRB 122113Z 1221/1318 21006KT 3SM -SHSN SCT010 OVC050
     FM130000 27004KT 3SM -SHSN SCT030 OVC035
     FM130200 27005KT P6SM BKN035 BKN040
     FM130500 29010KT P6SM SCT045 BKN050
     FM130800 30021G35KT P6SM SCT045 BKN060
     FM131200 31022G37KT P6SM FEW045 SCT120=

USA.gov is the U.S. government's official web portal to all federal, state and local government web resources and services.